Time;durP1;ratioP1;P1;durP2;ratioP2;P2;SDS_P1;SDS_P2;PMS_P1;PMS_P2;Temp;Humidity;BMP_temperature;BMP_pressure;BME280_temperature;BME280_humidity;BME280_pressure;Samples;Min_cycle;Max_cycle;Signal;HPM_P1;HPM_P2
2022/10/07 00:01:18;;;;;;;42.83;9.93;;;;;;;7.65;100.00;102654.78;5136210;27;20027;-45
2022/10/07 00:03:43;;;;;;;40.97;10.73;;;;;;;7.71;100.00;102665.50;5135049;27;20028;-45
2022/10/07 00:06:14;;;;;;;33.53;10.20;;;;;;;7.64;100.00;102659.03;5135948;27;20378;-43
2022/10/07 00:08:42;;;;;;;37.58;10.48;;;;;;;7.74;100.00;102651.19;5135598;27;20600;-43
2022/10/07 00:11:22;;;;;;;31.33;10.02;;;;;;;7.76;100.00;102653.88;5135412;27;20038;-45
2022/10/07 00:13:51;;;;;;;35.92;9.40;;;;;;;7.73;100.00;102652.00;5135678;27;20031;-48
2022/10/07 00:16:23;;;;;;;42.97;10.43;;;;;;;7.73;100.00;102643.38;5135826;27;20027;-47
2022/10/07 00:18:49;;;;;;;38.53;10.15;;;;;;;7.73;100.00;102646.84;5134624;27;20031;-44
2022/10/07 00:21:16;;;;;;;35.42;10.45;;;;;;;7.66;100.00;102642.06;5135926;27;20027;-44
2022/10/07 00:23:43;;;;;;;36.53;9.55;;;;;;;7.74;100.00;102640.03;5135519;27;20021;-48
2022/10/07 00:26:12;;;;;;;38.47;10.02;;;;;;;7.76;100.00;102638.47;5134893;27;20058;-45
2022/10/07 00:28:37;;;;;;;26.48;9.57;;;;;;;7.68;100.00;102634.47;5135327;27;20494;-44
2022/10/07 00:31:05;;;;;;;40.47;9.25;;;;;;;7.74;100.00;102629.78;5135380;27;20157;-47
2022/10/07 00:33:33;;;;;;;35.20;10.10;;;;;;;7.78;100.00;102636.03;5134327;27;20378;-45
2022/10/07 00:35:59;;;;;;;26.27;9.10;;;;;;;7.76;100.00;102633.34;5135673;27;20046;-46
2022/10/07 00:38:24;;;;;;;27.00;8.90;;;;;;;7.70;100.00;102622.66;5134573;27;20404;-44
2022/10/07 00:40:49;;;;;;;36.80;9.68;;;;;;;7.65;100.00;102624.00;5134962;27;20035;-44
2022/10/07 00:43:22;;;;;;;26.10;8.18;;;;;;;7.67;100.00;102617.28;5135262;27;20027;-44
2022/10/07 00:45:48;;;;;;;31.23;9.07;;;;;;;7.58;100.00;102615.88;5134050;27;20067;-44
2022/10/07 00:48:16;;;;;;;34.65;9.55;;;;;;;7.51;100.00;102616.19;5135413;27;20099;-44
2022/10/07 00:50:41;;;;;;;35.38;9.18;;;;;;;7.58;100.00;102621.00;5135085;27;20088;-45
2022/10/07 00:53:08;;;;;;;31.27;8.75;;;;;;;7.45;100.00;102614.88;5134409;27;20399;-46
2022/10/07 00:55:34;;;;;;;34.22;10.18;;;;;;;7.43;100.00;102612.22;5135521;27;20065;-43
2022/10/07 00:58:07;;;;;;;28.70;9.68;;;;;;;7.42;100.00;102607.88;5134863;27;20050;-45
2022/10/07 01:00:32;;;;;;;33.17;9.55;;;;;;;7.37;100.00;102607.56;5134378;27;20469;-43
2022/10/07 01:02:58;;;;;;;35.50;9.70;;;;;;;7.49;100.00;102601.47;5135010;27;20072;-44
2022/10/07 01:05:24;;;;;;;34.22;10.55;;;;;;;7.55;100.00;102599.34;5134963;27;20080;-45
2022/10/07 01:07:50;;;;;;;37.30;8.90;;;;;;;7.49;100.00;102607.53;5133599;27;20499;-45
2022/10/07 01:10:18;;;;;;;29.50;9.45;;;;;;;7.45;100.00;102597.84;5134950;27;20023;-44
2022/10/07 01:13:18;;;;;;;33.58;10.82;;;;;;;7.50;100.00;102599.06;5134336;27;20110;-47
2022/10/07 01:16:01;;;;;;;35.75;9.77;;;;;;;7.48;100.00;102595.47;5133688;27;20072;-44
2022/10/07 01:18:45;;;;;;;32.13;9.15;;;;;;;7.44;100.00;102593.47;5134644;27;20075;-44
2022/10/07 01:21:34;;;;;;;33.70;8.82;;;;;;;7.36;100.00;102592.94;5133641;27;20473;-48
2022/10/07 01:24:32;;;;;;;32.05;9.20;;;;;;;7.27;100.00;102588.81;5134382;27;20560;-48
2022/10/07 01:26:57;;;;;;;;;;;;;;;7.34;100.00;102580.78;5134844;27;20462;-44
2022/10/07 01:29:36;;;;;;;38.47;9.63;;;;;;;7.22;100.00;102575.69;5133549;27;19918;-43
2022/10/07 01:32:16;;;;;;;28.55;9.57;;;;;;;7.22;100.00;102568.88;5134542;27;20303;-45
2022/10/07 01:34:43;;;;;;;38.42;9.65;;;;;;;7.27;100.00;102568.31;5133458;27;20035;-43
2022/10/07 01:37:13;;;;;;;28.88;9.43;;;;;;;7.17;100.00;102564.22;5134340;27;20026;-44
2022/10/07 01:39:47;;;;;;;32.10;9.25;;;;;;;7.21;100.00;102563.66;5134155;27;20023;-43
2022/10/07 01:42:12;;;;;;;37.15;10.95;;;;;;;7.23;100.00;102557.84;5133482;27;20098;-44
2022/10/07 01:44:39;;;;;;;36.05;10.25;;;;;;;7.27;100.00;102550.34;5133969;27;20047;-43
2022/10/07 01:47:06;;;;;;;34.05;9.82;;;;;;;7.28;100.00;102544.44;5134124;27;20057;-47
2022/10/07 01:49:31;;;;;;;30.25;9.85;;;;;;;7.34;100.00;102534.63;5133184;27;20019;-45
2022/10/07 01:52:02;;;;;;;32.42;9.15;;;;;;;7.37;100.00;102529.69;5134100;27;20023;-45
2022/10/07 01:54:47;;;;;;;40.70;10.10;;;;;;;7.37;100.00;102519.44;5133977;27;20064;-44
2022/10/07 01:57:40;;;;;;;37.72;9.90;;;;;;;7.39;100.00;102533.28;5133433;27;20061;-48
2022/10/07 02:00:11;;;;;;;34.20;10.02;;;;;;;7.40;100.00;102515.41;5134279;27;20516;-44
2022/10/07 02:02:53;;;;;;;48.15;11.13;;;;;;;7.41;100.00;102518.84;5133474;27;20023;-43
2022/10/07 02:05:34;;;;;;;37.00;10.32;;;;;;;7.43;100.00;102519.88;5133870;27;20457;-44
2022/10/07 02:08:19;;;;;;;35.03;10.65;;;;;;;7.43;100.00;102519.00;5134054;28;20019;-43
2022/10/07 02:11:04;;;;;;;33.25;10.00;;;;;;;7.41;100.00;102511.16;5132929;28;20023;-46
2022/10/07 02:13:40;;;;;;;36.28;10.10;;;;;;;7.39;100.00;102512.75;5133807;28;20374;-46
2022/10/07 02:16:11;;;;;;;29.85;9.57;;;;;;;7.40;100.00;102505.16;5134148;28;20019;-44
2022/10/07 02:18:40;;;;;;;38.75;10.85;;;;;;;7.35;100.00;102505.63;5132742;27;20046;-45
2022/10/07 02:21:08;;;;;;;38.17;9.85;;;;;;;7.34;100.00;102502.16;5137550;27;20027;-46
2022/10/07 02:23:37;;;;;;;37.33;10.75;;;;;;;7.34;100.00;102499.59;5137877;27;20077;-47
2022/10/07 02:26:05;;;;;;;36.88;10.38;;;;;;;7.29;100.00;102500.06;5137110;27;20023;-46
2022/10/07 02:28:34;;;;;;;39.65;11.10;;;;;;;7.24;100.00;102500.66;5137989;27;20024;-43
2022/10/07 02:31:02;;;;;;;35.78;10.48;;;;;;;7.31;100.00;102494.25;5137026;27;20023;-46
2022/10/07 02:33:30;;;;;;;36.13;10.43;;;;;;;7.25;100.00;102494.72;5137801;27;20031;-45
2022/10/07 02:36:02;;;;;;;36.28;10.70;;;;;;;7.23;100.00;102490.25;5137735;27;20031;-46
2022/10/07 02:38:28;;;;;;;36.53;10.55;;;;;;;7.20;100.00;102490.06;5136857;27;20035;-45
2022/10/07 02:41:04;;;;;;;35.05;10.75;;;;;;;7.16;100.00;102478.69;5137630;27;20041;-43
2022/10/07 02:43:43;;;;;;;45.00;10.82;;;;;;;6.99;100.00;102474.06;5137767;27;20062;-46
2022/10/07 02:46:14;;;;;;;34.55;10.73;;;;;;;6.98;100.00;102474.84;5136670;27;20130;-44
2022/10/07 02:49:01;;;;;;;36.80;11.13;;;;;;;6.96;100.00;102468.69;5137104;27;20019;-44
2022/10/07 02:51:32;;;;;;;29.58;10.85;;;;;;;6.91;100.00;102471.84;5137330;27;20415;-45
2022/10/07 02:54:01;;;;;;;32.70;11.57;;;;;;;6.85;100.00;102461.16;5136653;27;20042;-44
2022/10/07 02:56:28;;;;;;;33.72;11.15;;;;;;;6.88;100.00;102465.59;5137537;27;20026;-43
2022/10/07 02:58:54;;;;;;;34.70;11.23;;;;;;;6.90;100.00;102458.94;5136467;27;20488;-43
2022/10/07 03:01:26;;;;;;;39.92;11.77;;;;;;;6.86;100.00;102462.94;5137139;27;20015;-43
2022/10/07 03:03:51;;;;;;;42.00;11.32;;;;;;;6.84;100.00;102451.72;5137196;27;20019;-44
2022/10/07 03:06:18;;;;;;;41.90;11.88;;;;;;;6.81;100.00;102453.16;5136463;27;20401;-44
2022/10/07 03:08:43;;;;;;;35.60;11.13;;;;;;;6.88;100.00;102446.00;5136950;27;20038;-44
2022/10/07 03:11:09;;;;;;;37.85;11.70;;;;;;;6.90;100.00;102444.41;5137109;27;20031;-47
2022/10/07 03:13:34;;;;;;;41.40;11.15;;;;;;;6.91;100.00;102451.34;5135997;27;20019;-44
2022/10/07 03:16:02;;;;;;;43.28;11.43;;;;;;;6.94;100.00;102444.66;5136971;27;20031;-44
2022/10/07 03:18:28;;;;;;;39.13;10.55;;;;;;;6.95;100.00;102441.31;5137002;27;20106;-46
2022/10/07 03:20:55;;;;;;;37.30;10.88;;;;;;;7.05;100.00;102446.28;5136034;27;20153;-45
2022/10/07 03:23:24;;;;;;;44.63;11.20;;;;;;;7.06;100.00;102440.38;5136928;27;20425;-44
2022/10/07 03:25:50;;;;;;;41.10;10.50;;;;;;;7.04;100.00;102434.25;5136516;27;20030;-44
2022/10/07 03:28:19;;;;;;;40.05;11.15;;;;;;;7.05;100.00;102430.88;5135802;27;20038;-43
2022/10/07 03:30:45;;;;;;;39.00;10.85;;;;;;;6.99;100.00;102427.94;5135480;27;20023;-44
2022/10/07 03:33:11;;;;;;;40.70;10.52;;;;;;;7.02;100.00;102433.25;5136546;27;20023;-43
2022/10/07 03:35:36;;;;;;;39.35;11.70;;;;;;;7.03;100.00;102425.66;5135685;27;20046;-44
2022/10/07 03:38:05;;;;;;;35.13;11.25;;;;;;;6.99;100.00;102425.38;5136425;27;20027;-43
2022/10/07 03:40:30;;;;;;;41.50;11.23;;;;;;;7.00;100.00;102424.59;5136377;27;20035;-45
2022/10/07 03:42:56;;;;;;;32.50;10.05;;;;;;;6.98;100.00;102421.00;5135577;27;20020;-46
2022/10/07 03:45:21;;;;;;;45.42;11.23;;;;;;;6.97;100.00;102421.78;5136459;27;20068;-44
2022/10/07 03:47:46;;;;;;;34.40;10.73;;;;;;;6.97;100.00;102419.22;5136156;27;20030;-49
2022/10/07 03:50:11;;;;;;;32.85;10.80;;;;;;;6.96;100.00;102415.78;5135710;27;20027;-46
2022/10/07 03:52:37;;;;;;;36.97;10.88;;;;;;;6.99;100.00;102412.53;5136109;27;20015;-45
2022/10/07 03:55:02;;;;;;;44.42;11.07;;;;;;;6.99;100.00;102413.44;5136171;27;20027;-44
2022/10/07 04:00:12;;;;;;;40.35;12.70;;;;;;;6.90;100.00;102413.66;5136482;27;20042;-46
2022/10/07 04:02:37;;;;;;;38.20;11.68;;;;;;;6.91;100.00;102409.44;5135171;27;20015;-45
2022/10/07 04:05:03;;;;;;;39.83;12.40;;;;;;;6.86;100.00;102408.25;5136228;27;20050;-46
2022/10/07 04:07:28;;;;;;;35.83;11.27;;;;;;;6.88;100.00;102414.34;5135950;27;20056;-44
2022/10/07 04:09:53;;;;;;;39.30;12.23;;;;;;;6.85;100.00;102404.75;5134900;27;20106;-48
2022/10/07 04:12:18;;;;;;;41.38;11.75;;;;;;;6.83;100.00;102408.91;5136121;27;20018;-47
2022/10/07 04:14:44;;;;;;;45.58;12.18;;;;;;;6.79;100.00;102399.25;5135599;27;20030;-44
2022/10/07 04:17:09;;;;;;;36.05;11.80;;;;;;;6.75;100.00;102402.34;5135058;27;20050;-43
2022/10/07 04:19:34;;;;;;;31.88;11.05;;;;;;;6.77;100.00;102400.78;5135463;27;20116;-46
2022/10/07 04:22:00;;;;;;;44.40;11.73;;;;;;;6.75;100.00;102404.91;5135586;27;20031;-43
2022/10/07 04:24:25;;;;;;;39.38;11.95;;;;;;;6.77;100.00;102400.78;5134841;27;20516;-44
2022/10/07 04:26:50;;;;;;;44.35;12.48;;;;;;;6.72;100.00;102391.88;5135223;27;20035;-43
2022/10/07 04:29:16;;;;;;;37.47;11.45;;;;;;;6.75;100.00;102402.34;5135810;27;20015;-44
2022/10/07 04:31:41;;;;;;;42.55;12.43;;;;;;;6.77;100.00;102399.91;5134653;27;20015;-46
2022/10/07 04:34:07;;;;;;;36.78;11.63;;;;;;;6.74;100.00;102396.34;5135487;27;20025;-43
2022/10/07 04:36:32;;;;;;;38.88;11.90;;;;;;;6.69;100.00;102392.56;5135269;27;20019;-46
2022/10/07 04:38:58;;;;;;;39.78;12.02;;;;;;;6.70;100.00;102399.47;5134492;27;20045;-44
2022/10/07 04:41:23;;;;;;;36.92;11.88;;;;;;;6.71;100.00;102400.34;5135256;27;20098;-46
2022/10/07 04:43:51;;;;;;;33.53;12.00;;;;;;;6.69;100.00;102405.38;5134821;27;20031;-44
2022/10/07 04:46:17;;;;;;;32.53;12.00;;;;;;;6.66;100.00;102394.94;5134264;27;20466;-44
2022/10/07 04:48:44;;;;;;;34.38;11.85;;;;;;;6.69;100.00;102391.69;5135073;27;20031;-44
2022/10/07 04:51:10;;;;;;;32.00;11.63;;;;;;;6.68;100.00;102390.78;5135170;27;20069;-44
2022/10/07 04:53:36;;;;;;;37.75;12.43;;;;;;;6.67;100.00;102396.69;5134028;27;20426;-46
2022/10/07 04:56:03;;;;;;;47.83;12.88;;;;;;;6.65;100.00;102390.56;5135265;27;20031;-46
2022/10/07 04:58:29;;;;;;;39.95;12.82;;;;;;;6.61;100.00;102392.81;5134327;27;20023;-45
2022/10/07 05:00:57;;;;;;;44.33;12.70;;;;;;;6.63;100.00;102392.13;5134671;27;20532;-43
2022/10/07 05:03:24;;;;;;;33.83;12.13;;;;;;;6.65;100.00;102381.97;5135021;27;20040;-47
2022/10/07 05:05:52;;;;;;;37.38;11.57;;;;;;;6.63;100.00;102388.69;5133935;27;20027;-45
2022/10/07 05:08:20;;;;;;;39.40;12.27;;;;;;;6.64;100.00;102377.66;5134688;27;20378;-43
2022/10/07 05:10:46;;;;;;;40.65;13.27;;;;;;;6.58;100.00;102381.56;5134753;27;20027;-45
2022/10/07 05:13:14;;;;;;;42.80;12.45;;;;;;;6.56;100.00;102380.56;5134180;27;20023;-46
2022/10/07 05:15:47;;;;;;;43.33;12.65;;;;;;;6.59;100.00;102382.44;5134543;27;20026;-43
2022/10/07 05:18:12;;;;;;;39.60;12.00;;;;;;;6.49;100.00;102372.34;5134451;27;20029;-44
2022/10/07 05:20:40;;;;;;;43.90;12.25;;;;;;;6.50;100.00;102374.13;5133589;27;20011;-44
2022/10/07 05:23:05;;;;;;;;;;;;;;;6.55;100.00;102367.66;5135122;27;20051;-48
2022/10/07 05:25:31;;;;;;;32.70;12.10;;;;;;;6.47;100.00;102363.63;5134227;27;19946;-43
2022/10/07 05:27:56;;;;;;;35.47;12.10;;;;;;;6.43;100.00;102365.13;5133791;27;20027;-44
2022/10/07 05:30:21;;;;;;;40.60;12.50;;;;;;;6.41;100.00;102359.88;5134466;27;20027;-43
2022/10/07 05:32:48;;;;;;;37.53;11.70;;;;;;;6.43;100.00;102370.25;5134012;27;20030;-47
2022/10/07 05:35:14;;;;;;;37.30;11.75;;;;;;;6.38;100.00;102359.66;5133421;27;20035;-46
2022/10/07 05:37:39;;;;;;;46.28;12.57;;;;;;;6.38;100.00;102361.34;5133868;27;20023;-45
2022/10/07 05:40:05;;;;;;;39.63;11.85;;;;;;;6.37;100.00;102359.56;5134309;27;20027;-49
2022/10/07 05:42:30;;;;;;;37.40;11.25;;;;;;;6.32;100.00;102359.22;5133358;27;20031;-43
2022/10/07 05:44:55;;;;;;;44.90;12.77;;;;;;;6.32;100.00;102358.34;5134145;27;20076;-48
2022/10/07 05:47:20;;;;;;;42.35;13.63;;;;;;;6.31;100.00;102356.56;5133996;27;20453;-48
2022/10/07 05:49:46;;;;;;;42.63;11.43;;;;;;;6.35;100.00;102359.47;5133028;27;20101;-48
2022/10/07 05:52:11;;;;;;;41.15;11.25;;;;;;;6.33;100.00;102361.00;5134024;27;20452;-49
2022/10/07 05:54:36;;;;;;;39.40;12.05;;;;;;;6.38;100.00;102354.53;5133105;27;20019;-46
2022/10/07 05:57:02;;;;;;;40.85;11.18;;;;;;;6.35;100.00;102353.44;5133292;27;20542;-48
2022/10/07 05:59:27;;;;;;;38.75;10.43;;;;;;;6.36;100.00;102350.97;5134081;27;20031;-48
2022/10/07 06:01:56;;;;;;;39.58;11.50;;;;;;;6.35;100.00;102348.31;5132977;27;20023;-47
2022/10/07 06:04:21;;;;;;;46.47;10.75;;;;;;;6.37;100.00;102341.63;5133805;27;20031;-48
2022/10/07 06:06:47;;;;;;;38.20;10.98;;;;;;;6.40;100.00;102339.28;5133424;27;20023;-48
2022/10/07 06:14:40;;;;;;;37.20;10.90;;;;;;;6.41;100.00;102338.50;5133866;28;20159;-47
2022/10/07 06:17:06;;;;;;;36.88;10.88;;;;;;;6.46;100.00;102342.28;5132737;28;20466;-44
2022/10/07 06:19:31;;;;;;;41.20;11.00;;;;;;;6.49;100.00;102341.59;5133677;28;20038;-48
2022/10/07 06:21:56;;;;;;;37.20;10.82;;;;;;;6.52;100.00;102336.69;5133764;28;20019;-47
2022/10/07 06:24:22;;;;;;;34.13;10.98;;;;;;;6.53;100.00;102336.81;5133004;28;20102;-48
2022/10/07 06:26:47;;;;;;;41.60;10.27;;;;;;;6.53;100.00;102339.38;5133531;28;20031;-47
2022/10/07 06:29:13;;;;;;;38.78;10.95;;;;;;;6.53;100.00;102336.81;5133638;28;20026;-48
2022/10/07 06:31:38;;;;;;;37.92;10.32;;;;;;;6.59;100.00;102334.66;5132570;28;20028;-47
2022/10/07 06:34:03;;;;;;;41.58;10.38;;;;;;;6.58;100.00;102334.56;5133871;28;20016;-47
2022/10/07 06:36:28;;;;;;;40.40;10.73;;;;;;;6.64;100.00;102336.69;5133507;28;20031;-48
2022/10/07 06:38:54;;;;;;;32.20;9.40;;;;;;;6.67;100.00;102335.19;5132624;28;20513;-49
2022/10/07 06:41:20;;;;;;;39.47;9.63;;;;;;;6.73;100.00;102333.06;5133681;28;20019;-46
2022/10/07 06:43:46;;;;;;;34.55;9.98;;;;;;;6.78;100.00;102341.06;5133173;28;20374;-49
2022/10/07 06:46:18;;;;;;;36.03;10.23;;;;;;;6.80;100.00;102344.63;5132520;28;20035;-48
2022/10/07 06:48:44;;;;;;;35.78;9.35;;;;;;;6.93;100.00;102341.22;5133410;28;20023;-44
2022/10/07 06:51:15;;;;;;;30.85;8.15;;;;;;;6.96;100.00;102335.41;5132867;28;20027;-48
2022/10/07 06:53:40;;;;;;;33.05;8.70;;;;;;;6.98;100.00;102334.72;5133310;28;20034;-49
2022/10/07 06:56:07;;;;;;;35.90;9.02;;;;;;;7.04;100.00;102339.41;5133250;28;20516;-48
2022/10/07 06:58:33;;;;;;;33.47;9.38;;;;;;;7.09;100.00;102343.19;5132204;28;20027;-49
2022/10/07 07:00:59;;;;;;;32.70;8.68;;;;;;;7.19;100.00;102345.56;5133323;28;20027;-44
2022/10/07 07:03:25;;;;;;;34.53;9.05;;;;;;;7.28;100.00;102349.53;5133555;28;20041;-47
2022/10/07 07:05:51;;;;;;;34.88;8.48;;;;;;;7.39;100.00;102353.72;5133817;27;20261;-48
2022/10/07 07:08:17;;;;;;;32.72;9.48;;;;;;;7.50;100.00;102346.72;5137448;27;20023;-49
2022/10/07 07:10:44;;;;;;;47.47;9.80;;;;;;;7.61;100.00;102344.88;5136922;27;20074;-49
2022/10/07 07:13:10;;;;;;;34.33;8.75;;;;;;;7.72;100.00;102344.78;5136143;27;20454;-49
2022/10/07 07:15:37;;;;;;;31.58;8.63;;;;;;;7.84;100.00;102344.69;5136589;27;20393;-48
2022/10/07 07:18:05;;;;;;;28.15;7.78;;;;;;;8.07;100.00;102350.44;5136788;27;20106;-46
2022/10/07 07:20:36;;;;;;;32.00;7.95;;;;;;;8.16;100.00;102345.88;5135896;27;20031;-47
2022/10/07 07:23:03;;;;;;;37.58;8.18;;;;;;;8.28;100.00;102337.19;5137025;27;20055;-48
2022/10/07 07:25:28;;;;;;;28.08;8.05;;;;;;;8.41;100.00;102339.72;5136913;27;20019;-48
2022/10/07 07:27:55;;;;;;;31.05;7.40;;;;;;;8.53;100.00;102344.75;5135760;27;20015;-48
2022/10/07 07:30:22;;;;;;;34.38;7.90;;;;;;;8.65;100.00;102336.91;5136896;27;20042;-49
2022/10/07 07:32:49;;;;;;;33.58;7.68;;;;;;;8.83;100.00;102340.63;5136631;27;20046;-48
2022/10/07 07:35:14;;;;;;;30.88;7.35;;;;;;;8.98;100.00;102344.91;5135927;27;20019;-48
2022/10/07 07:37:40;;;;;;;32.15;7.55;;;;;;;9.10;100.00;102340.47;5136336;27;20031;-48
2022/10/07 07:40:05;;;;;;;32.45;8.18;;;;;;;9.27;99.32;102341.50;5136551;27;20466;-49
2022/10/07 07:42:32;;;;;;;26.67;6.50;;;;;;;9.41;98.47;102336.28;5135282;27;20027;-48
2022/10/07 07:44:58;;;;;;;25.92;6.45;;;;;;;9.54;97.46;102334.50;5136540;27;20110;-48
2022/10/07 07:47:24;;;;;;;29.77;7.07;;;;;;;9.76;98.11;102337.41;5135432;27;20114;-48
2022/10/07 07:49:50;;;;;;;32.28;6.63;;;;;;;9.91;96.00;102330.56;5136264;27;20566;-49
2022/10/07 07:52:15;;;;;;;26.10;6.80;;;;;;;9.96;95.10;102328.25;5136372;27;20427;-46
2022/10/07 07:54:41;;;;;;;33.92;7.50;;;;;;;10.09;94.66;102322.97;5135330;27;20034;-49
2022/10/07 07:57:07;;;;;;;26.75;7.40;;;;;;;10.20;94.74;102323.56;5136004;27;20024;-48
2022/10/07 07:59:33;;;;;;;25.92;6.22;;;;;;;10.32;92.61;102328.50;5136151;27;20374;-48
2022/10/07 08:01:58;;;;;;;29.00;6.88;;;;;;;10.52;92.10;102329.59;5135261;27;20374;-48
2022/10/07 08:04:23;;;;;;;29.08;6.47;;;;;;;10.65;91.39;102318.25;5136123;27;20031;-49
2022/10/07 08:06:49;;;;;;;28.58;6.32;;;;;;;10.76;90.51;102327.44;5135830;27;20027;-49
2022/10/07 08:09:14;;;;;;;27.38;6.63;;;;;;;10.91;90.56;102326.47;5135232;27;20091;-49
2022/10/07 08:11:43;;;;;;;25.73;6.25;;;;;;;11.04;88.04;102323.72;5135579;27;20027;-48
2022/10/07 08:14:10;;;;;;;18.98;5.70;;;;;;;11.17;86.92;102326.13;5136130;27;20031;-48
2022/10/07 08:16:36;;;;;;;28.02;6.45;;;;;;;11.23;85.83;102320.38;5134578;27;20027;-49
2022/10/07 08:19:02;;;;;;;28.00;6.10;;;;;;;11.31;85.06;102315.59;5135384;27;20104;-49
2022/10/07 08:21:31;;;;;;;23.10;5.88;;;;;;;11.48;85.32;102321.63;5135820;27;20461;-49
2022/10/07 08:23:58;;;;;;;29.40;6.63;;;;;;;11.83;83.68;102318.16;5134991;27;20475;-48
2022/10/07 08:26:24;;;;;;;24.52;6.45;;;;;;;12.12;81.75;102318.72;5135578;27;20098;-49
2022/10/07 08:28:50;;;;;;;21.70;5.50;;;;;;;12.52;82.24;102315.38;5135483;27;20027;-49
2022/10/07 08:31:18;;;;;;;26.95;6.82;;;;;;;12.59;79.97;102316.53;5134638;27;20053;-50
2022/10/07 08:33:45;;;;;;;20.90;5.43;;;;;;;12.66;79.46;102322.84;5135018;27;20467;-49
2022/10/07 08:36:13;;;;;;;26.58;5.85;;;;;;;12.78;79.17;102310.47;5135380;27;20031;-44
2022/10/07 08:38:39;;;;;;;26.38;5.93;;;;;;;12.82;77.26;102309.78;5134213;27;20050;-50
2022/10/07 08:41:07;;;;;;;29.98;5.82;;;;;;;12.85;77.51;102319.38;5135271;27;20806;-49
2022/10/07 08:43:35;;;;;;;17.58;5.35;;;;;;;12.79;78.14;102308.75;5134520;27;20042;-47
2022/10/07 08:46:02;;;;;;;;;;;;;;;12.90;80.57;102304.94;5135569;27;20160;-49
2022/10/07 08:48:33;;;;;;;23.80;6.10;;;;;;;12.67;76.99;102303.94;5135393;27;19950;-46
2022/10/07 08:51:18;;;;;;;24.33;5.35;;;;;;;12.83;78.77;102296.03;5134425;27;20026;-48
2022/10/07 08:53:47;;;;;;;30.80;5.30;;;;;;;12.92;76.32;102299.81;5135086;27;20102;-48
2022/10/07 08:56:16;;;;;;;22.90;5.88;;;;;;;12.93;75.94;102296.44;5135166;27;20076;-48
2022/10/07 08:59:00;;;;;;;25.55;5.97;;;;;;;13.04;75.65;102294.28;5134036;27;20087;-47
2022/10/07 09:01:26;;;;;;;25.92;6.40;;;;;;;13.24;74.96;102282.19;5134768;27;20427;-50
2022/10/07 09:04:07;;;;;;;26.43;5.90;;;;;;;13.34;75.38;102284.34;5134753;27;20027;-48
2022/10/07 09:06:38;;;;;;;27.73;5.80;;;;;;;13.39;74.45;102280.28;5133677;27;20454;-48
2022/10/07 09:09:15;;;;;;;26.65;5.78;;;;;;;13.53;75.15;102278.25;5135013;27;20057;-43
2022/10/07 09:11:44;;;;;;;21.30;5.38;;;;;;;13.75;73.45;102272.22;5133688;27;20538;-45
2022/10/07 09:14:19;;;;;;;19.67;5.05;;;;;;;14.00;72.81;102273.16;5134674;27;20427;-49
2022/10/07 09:16:46;;;;;;;23.25;5.22;;;;;;;14.19;71.73;102273.84;5134579;27;20030;-49
2022/10/07 09:19:38;;;;;;;28.17;6.10;;;;;;;14.20;71.36;102270.44;5133943;27;20102;-50
2022/10/07 09:22:16;;;;;;;28.60;5.35;;;;;;;14.13;72.02;102269.34;5134558;27;20028;-49
2022/10/07 09:24:44;;;;;;;23.85;5.20;;;;;;;14.35;71.19;102265.81;5134162;27;20049;-49
2022/10/07 09:27:14;;;;;;;26.70;5.57;;;;;;;14.80;70.07;102264.88;5133911;27;20023;-49
2022/10/07 09:29:40;;;;;;;23.45;5.63;;;;;;;15.00;68.70;102260.34;5134391;27;20049;-49
2022/10/07 09:32:08;;;;;;;22.98;5.25;;;;;;;15.27;68.55;102267.28;5134537;27;20373;-48
2022/10/07 09:34:33;;;;;;;32.20;5.60;;;;;;;15.70;66.58;102260.88;5133729;27;20035;-49
2022/10/07 09:37:20;;;;;;;27.45;5.10;;;;;;;16.20;67.47;102257.19;5134269;27;20466;-48
2022/10/07 09:39:51;;;;;;;22.27;5.43;;;;;;;15.74;64.61;102257.53;5134106;27;20102;-48
2022/10/07 09:42:33;;;;;;;20.83;5.28;;;;;;;15.88;65.90;102255.41;5134342;27;20034;-48
2022/10/07 09:45:01;;;;;;;21.25;5.10;;;;;;;16.22;62.91;102252.91;5134281;27;20106;-50
2022/10/07 09:47:35;;;;;;;23.15;5.45;;;;;;;16.66;62.50;102237.66;5133172;27;20035;-49
2022/10/07 09:50:01;;;;;;;29.67;4.93;;;;;;;16.69;61.19;102237.72;5134281;27;20111;-48
2022/10/07 09:52:28;;;;;;;22.80;5.10;;;;;;;16.51;61.48;102239.84;5134280;27;20102;-49
2022/10/07 09:54:56;;;;;;;26.10;5.32;;;;;;;17.02;61.43;102238.59;5132937;27;20035;-49
2022/10/07 09:57:26;;;;;;;23.17;5.22;;;;;;;17.26;60.60;102231.38;5133970;27;20023;-48
2022/10/07 10:00:14;;;;;;;23.13;4.50;;;;;;;17.63;58.03;102231.34;5133628;27;20031;-49
2022/10/07 10:02:44;;;;;;;27.60;4.68;;;;;;;17.62;58.45;102232.19;5132862;27;20478;-47
2022/10/07 10:05:24;;;;;;;29.10;5.05;;;;;;;18.06;57.19;102227.13;5133974;27;20480;-49
2022/10/07 10:07:53;;;;;;;28.17;5.22;;;;;;;17.91;56.41;102227.63;5133691;27;20023;-45
2022/10/07 10:10:31;;;;;;;31.77;5.90;;;;;;;18.12;57.01;102218.53;5133219;27;20023;-49
2022/10/07 10:12:58;;;;;;;30.75;5.40;;;;;;;18.07;55.13;102223.63;5133880;28;20019;-50
2022/10/07 10:15:42;;;;;;;21.15;4.90;;;;;;;18.20;56.62;102210.84;5133284;28;20050;-48
2022/10/07 10:18:29;;;;;;;26.33;5.43;;;;;;;18.34;56.58;102209.38;5133778;28;20449;-50
2022/10/07 10:20:54;;;;;;;;;;;;;;;18.66;55.62;102203.88;5134023;28;20526;-50
2022/10/07 10:23:34;;;;;;;24.60;4.72;;;;;;;18.32;55.99;102210.19;5133155;28;20003;-50
2022/10/07 10:29:01;;;;;;;24.27;4.18;;;;;;;18.36;54.52;102192.03;5133529;28;20488;-49
2022/10/07 10:31:36;;;;;;;;;;;;;;;18.89;55.70;102190.34;5134333;28;20024;-50
2022/10/07 10:34:14;;;;;;;25.30;4.55;;;;;;;19.17;53.88;102182.97;5133631;28;20357;-49
2022/10/07 10:36:43;;;;;;;25.48;5.60;;;;;;;19.21;50.98;102184.75;5132649;28;20023;-47
2022/10/07 10:39:33;;;;;;;24.55;5.00;;;;;;;19.51;52.42;102172.97;5133552;28;20032;-48
2022/10/07 10:42:03;;;;;;;23.88;4.50;;;;;;;19.69;51.06;102170.63;5137270;27;20027;-50
2022/10/07 10:45:01;;;;;;;28.90;5.53;;;;;;;19.58;51.01;102169.59;5137089;27;20027;-50
2022/10/07 10:48:01;;;;;;;22.77;4.57;;;;;;;19.33;50.64;102158.81;5137733;27;20039;-49
2022/10/07 10:50:43;;;;;;;25.42;5.03;;;;;;;19.36;50.40;102166.69;5136857;27;20066;-48
2022/10/07 10:53:30;;;;;;;25.30;4.80;;;;;;;19.16;49.78;102166.41;5137654;27;20019;-50
2022/10/07 10:56:11;;;;;;;26.60;5.38;;;;;;;19.13;49.92;102155.03;5137463;27;20019;-49
2022/10/07 10:59:08;;;;;;;23.13;4.63;;;;;;;19.07;50.33;102156.69;5136435;27;20115;-50
2022/10/07 11:01:38;;;;;;;28.92;4.40;;;;;;;18.81;50.00;102150.16;5119057;27;20481;-50
2022/10/07 11:04:12;;;;;;;24.77;5.18;;;;;;;18.99;51.88;102141.75;5137262;27;20031;-48
2022/10/07 11:06:41;;;;;;;24.90;4.50;;;;;;;19.28;50.64;102143.94;5136783;27;20496;-50
2022/10/07 11:09:15;;;;;;;22.63;4.10;;;;;;;19.66;50.37;102136.56;5137025;27;20359;-50
2022/10/07 11:11:43;;;;;;;23.75;5.38;;;;;;;19.83;49.67;102138.56;5136273;27;20043;-48
2022/10/07 11:14:13;;;;;;;24.08;4.20;;;;;;;20.16;49.11;102135.44;5137095;27;20063;-50
2022/10/07 11:16:45;;;;;;;21.85;4.18;;;;;;;20.04;46.32;102128.34;5136919;27;20034;-49
2022/10/07 11:19:48;;;;;;;24.85;5.15;;;;;;;20.24;46.82;102127.66;5136091;27;20058;-49
2022/10/07 11:22:25;;;;;;;24.75;4.45;;;;;;;20.03;46.10;102126.56;5091272;27;20114;-50
2022/10/07 11:24:55;;;;;;;28.27;4.47;;;;;;;19.95;46.89;102117.78;5136652;27;20030;-50
2022/10/07 11:27:31;;;;;;;20.00;4.43;;;;;;;19.92;47.61;102119.47;5135988;27;20019;-50
2022/10/07 11:30:14;;;;;;;27.63;4.53;;;;;;;20.30;46.72;102112.03;5136972;27;20023;-46
2022/10/07 11:33:00;;;;;;;28.02;4.80;;;;;;;20.35;46.87;102107.69;5135838;27;20388;-50
2022/10/07 11:35:32;;;;;;;21.80;4.05;;;;;;;19.80;46.91;102097.50;5136974;27;20050;-49
2022/10/07 11:38:11;;;;;;;19.05;4.13;;;;;;;19.56;48.06;102083.31;5136507;27;20470;-47